LOBO55 KSAN-
Flight info
| Callsign | LOBO55 |
|---|---|
| Flight time | N/A |
| Altitude | VFR |
| Route | N |
| Aircraft | T6/L-VGD/C |
Departure
| Time | 2026-05-03 21:42 |
|---|---|
| Airport | San Diego International Airport (KSAN) |
Arrival
| Time | N/A |
|---|---|
| Airport | - |
| Time | Latitude | Longitude | Altitude | Speed | Heading |
|---|---|---|---|---|---|
| 2026-05-03 21:42 | 32.76187 | -117.19290 | 1600 ft | 156 kts | 105° |
| 2026-05-03 21:42 | 32.75981 | -117.18056 | 1718 ft | 152 kts | 101° |
| 2026-05-03 21:42 | 32.75745 | -117.16777 | 1524 ft | 161 kts | 105° |
| 2026-05-03 21:42 | 32.75486 | -117.15505 | 1443 ft | 154 kts | 104° |
| 2026-05-03 21:43 | 32.74944 | -117.14518 | 1467 ft | 145 kts | 162° |
| 2026-05-03 21:43 | 32.73938 | -117.14507 | 1365 ft | 148 kts | 191° |
| 2026-05-03 21:43 | 32.72949 | -117.14622 | 1189 ft | 127 kts | 193° |
| 2026-05-03 21:43 | 32.72567 | -117.15285 | 822 ft | 104 kts | 277° |
| 2026-05-03 21:44 | 32.72668 | -117.16115 | 595 ft | 101 kts | 287° |
| 2026-05-03 21:44 | 32.72865 | -117.16918 | 318 ft | 100 kts | 288° |
| 2026-05-03 21:44 | 32.73036 | -117.17657 | 95 ft | 90 kts | 290° |
| 2026-05-03 21:44 | 32.73199 | -117.18357 | 22 ft | 82 kts | 289° |
| 2026-05-03 21:45 | 32.73344 | -117.18906 | 17 ft | 58 kts | 286° |
| 2026-05-03 21:45 | 32.73515 | -117.19667 | 234 ft | 130 kts | 286° |
| 2026-05-03 21:45 | 32.73911 | -117.20794 | 830 ft | 162 kts | 306° |
| 2026-05-03 21:45 | 32.74814 | -117.21725 | 1407 ft | 181 kts | 322° |
| 2026-05-03 21:46 | 32.75895 | -117.22616 | 1928 ft | 199 kts | 323° |
| 2026-05-03 21:46 | 32.77175 | -117.23410 | 2315 ft | 212 kts | 335° |
| 2026-05-03 21:46 | 32.78518 | -117.23784 | 2388 ft | 180 kts | 349° |
| 2026-05-03 21:46 | 32.79442 | -117.23924 | 2288 ft | 157 kts | 345° |
| 2026-05-03 21:47 | 32.80324 | -117.24387 | 2291 ft | 125 kts | 317° |
| 2026-05-03 21:47 | 32.80828 | -117.25160 | 2016 ft | 118 kts | 287° |
| 2026-05-03 21:47 | 32.80755 | -117.26124 | 1551 ft | 125 kts | 238° |
| 2026-05-03 21:47 | 32.79988 | -117.26454 | 1209 ft | 126 kts | 171° |
| 2026-05-03 21:48 | 32.79141 | -117.25996 | 592 ft | 139 kts | 153° |
| 2026-05-03 21:48 | 32.78259 | -117.25626 | 298 ft | 136 kts | 172° |
| 2026-05-03 21:48 | 32.77280 | -117.25464 | 187 ft | 150 kts | 174° |
| 2026-05-03 21:48 | 32.76193 | -117.25340 | 176 ft | 162 kts | 178° |
| 2026-05-03 21:49 | 32.75057 | -117.25329 | 195 ft | 164 kts | 200° |
| 2026-05-03 21:49 | 32.73953 | -117.25639 | 203 ft | 165 kts | 187° |
| 2026-05-03 21:49 | 32.72799 | -117.25722 | 151 ft | 165 kts | 187° |
| 2026-05-03 21:49 | 32.71689 | -117.25754 | 237 ft | 158 kts | 180° |
| 2026-05-03 21:50 | 32.70604 | -117.25680 | 287 ft | 156 kts | 177° |
| 2026-05-03 21:50 | 32.69533 | -117.25483 | 332 ft | 156 kts | 174° |
| 2026-05-03 21:50 | 32.68486 | -117.25226 | 407 ft | 153 kts | 168° |
| 2026-05-03 21:50 | 32.67446 | -117.24841 | 422 ft | 159 kts | 161° |
| 2026-05-03 21:51 | 32.66430 | -117.24338 | 442 ft | 157 kts | 155° |
| 2026-05-03 21:51 | 32.65608 | -117.23700 | 512 ft | 127 kts | 184° |
| 2026-05-03 21:51 | 32.65199 | -117.24318 | 364 ft | 111 kts | 296° |
| 2026-05-03 21:51 | 32.65900 | -117.24671 | 350 ft | 130 kts | 358° |
| 2026-05-03 21:52 | 32.66785 | -117.24481 | 389 ft | 123 kts | 352° |
| 2026-05-03 21:52 | 32.67555 | -117.24747 | 381 ft | 115 kts | 338° |
| 2026-05-03 21:52 | 32.68358 | -117.25007 | 369 ft | 125 kts | 341° |
| 2026-05-03 21:52 | 32.69218 | -117.25304 | 267 ft | 133 kts | 334° |
| 2026-05-03 21:53 | 32.70106 | -117.25679 | 255 ft | 138 kts | 345° |
| 2026-05-03 21:53 | 32.71074 | -117.25691 | 231 ft | 142 kts | 358° |
| 2026-05-03 21:53 | 32.72055 | -117.25738 | 250 ft | 140 kts | 351° |
| 2026-05-03 21:53 | 32.73033 | -117.25673 | 214 ft | 145 kts | 5° |
| 2026-05-03 21:54 | 32.74037 | -117.25520 | 213 ft | 148 kts | 2° |
| 2026-05-03 21:54 | 32.75050 | -117.25325 | 367 ft | 142 kts | 22° |
| 2026-05-03 21:54 | 32.75472 | -117.24360 | 677 ft | 136 kts | 85° |
| 2026-05-03 21:54 | 32.75397 | -117.23207 | 912 ft | 156 kts | 97° |
| 2026-05-03 21:55 | 32.75217 | -117.21810 | 1263 ft | 183 kts | 98° |
| 2026-05-03 21:55 | 32.75119 | -117.20229 | 1461 ft | 201 kts | 90° |
| 2026-05-03 21:55 | 32.75094 | -117.18511 | 1520 ft | 221 kts | 93° |
| 2026-05-03 21:55 | 32.75022 | -117.16771 | 1509 ft | 189 kts | 96° |
| 2026-05-03 21:56 | 32.74880 | -117.15313 | 1542 ft | 174 kts | 99° |
| 2026-05-03 21:56 | 32.74716 | -117.13911 | 1715 ft | 166 kts | 97° |
| 2026-05-03 21:56 | 32.74572 | -117.12563 | 1752 ft | 170 kts | 99° |
| 2026-05-03 21:56 | 32.74374 | -117.11172 | 1793 ft | 170 kts | 113° |
| 2026-05-03 21:57 | 32.73472 | -117.10437 | 1609 ft | 170 kts | 180° |
| 2026-05-03 21:57 | 32.72311 | -117.10599 | 1472 ft | 160 kts | 198° |
| 2026-05-03 21:57 | 32.71470 | -117.11295 | 1274 ft | 149 kts | 255° |
| 2026-05-03 21:57 | 32.71763 | -117.12415 | 1132 ft | 144 kts | 296° |
| 2026-05-03 21:58 | 32.72062 | -117.13553 | 1061 ft | 142 kts | 282° |
| 2026-05-03 21:58 | 32.72333 | -117.14675 | 878 ft | 141 kts | 284° |
| 2026-05-03 21:58 | 32.72576 | -117.15726 | 667 ft | 124 kts | 287° |
| 2026-05-03 21:58 | 32.72794 | -117.16660 | 434 ft | 114 kts | 290° |
| 2026-05-03 21:59 | 32.73017 | -117.17576 | 108 ft | 115 kts | 291° |
| 2026-05-03 21:59 | 32.73222 | -117.18414 | 17 ft | 92 kts | 291° |
| 2026-05-03 21:59 | 32.73355 | -117.18926 | 17 ft | 46 kts | 290° |
| 2026-05-03 21:59 | 32.73469 | -117.19073 | 15 ft | 16 kts | 36° |
| 2026-05-03 22:00 | 32.73479 | -117.19058 | 14 ft | 2 kts | 62° |
| 2026-05-03 22:00 | 32.73476 | -117.19002 | 14 ft | 13 kts | 98° |
| 2026-05-03 22:00 | 32.73441 | -117.18843 | 14 ft | 26 kts | 106° |
| 2026-05-03 22:00 | 32.73377 | -117.18586 | 16 ft | 36 kts | 104° |
| 2026-05-03 22:01 | 32.73304 | -117.18281 | 16 ft | 42 kts | 106° |
| 2026-05-03 22:01 | 32.73271 | -117.17975 | 16 ft | 31 kts | 28° |
| 2026-05-03 22:01 | 32.73343 | -117.17886 | 17 ft | 0 kts | 104° |